Big Lake, Indiana
Current Conditions -  °F | °C
As of 4:09 PM on Sunday 23 Nov 2014 (Local Time) from KFWA Reporting Station
Moderate Rain Moderate Rain  
Wind Chill: 52°   Ceiling: 2500
Heat Index: 52°   Visibility: 2mi
Dew Point: 50°   Wind: 9mph
Humidity: 93%   Direction: 140°SE
Pressure: 29.61"   Gusts: NA
Location:  41.1479°N, 85.4772°W
Report Text: KFWA 232109Z 14008KT 2SM RA BR FEW015 BKN025 OVC033 11/10 A2961 RMK AO2 VIS 1 3/4V2 1/2 P0007 T01110100
Loading
Personal Weather Stations






























Interactive Weather Map New forecast layout! Learn more

10-Day Weather Forecast

Advertisements
Track Severe Weather on mobile